sensor_id;sensor_type;location;lat;lon;timestamp;P1;durP1;ratioP1;P2;durP2;ratioP2
17369;SDS011;8802;52.402;4.920;2023-02-15T00:00:19;42.35;;;37.78;;
17369;SDS011;8802;52.402;4.920;2023-02-15T00:02:46;43.75;;;36.70;;
17369;SDS011;8802;52.402;4.920;2023-02-15T00:05:13;42.92;;;37.15;;
17369;SDS011;8802;52.402;4.920;2023-02-15T00:07:41;42.15;;;37.45;;
17369;SDS011;8802;52.402;4.920;2023-02-15T00:10:08;43.78;;;36.33;;
17369;SDS011;8802;52.402;4.920;2023-02-15T00:12:37;44.65;;;38.33;;
17369;SDS011;8802;52.402;4.920;2023-02-15T00:15:04;42.97;;;38.28;;
17369;SDS011;8802;52.402;4.920;2023-02-15T00:17:30;43.33;;;36.03;;
17369;SDS011;8802;52.402;4.920;2023-02-15T00:19:57;46.13;;;36.58;;
17369;SDS011;8802;52.402;4.920;2023-02-15T00:22:24;44.50;;;38.15;;
17369;SDS011;8802;52.402;4.920;2023-02-15T00:24:53;44.95;;;36.85;;
17369;SDS011;8802;52.402;4.920;2023-02-15T00:27:19;42.17;;;37.17;;
17369;SDS011;8802;52.402;4.920;2023-02-15T00:29:46;45.55;;;39.13;;
17369;SDS011;8802;52.402;4.920;2023-02-15T00:32:13;43.42;;;37.83;;
17369;SDS011;8802;52.402;4.920;2023-02-15T00:34:40;40.92;;;35.58;;
17369;SDS011;8802;52.402;4.920;2023-02-15T00:37:08;41.13;;;35.15;;
17369;SDS011;8802;52.402;4.920;2023-02-15T00:39:35;40.53;;;34.65;;
17369;SDS011;8802;52.402;4.920;2023-02-15T00:42:03;37.55;;;33.50;;
17369;SDS011;8802;52.402;4.920;2023-02-15T00:44:30;39.50;;;34.80;;
17369;SDS011;8802;52.402;4.920;2023-02-15T00:46:57;44.97;;;36.17;;
17369;SDS011;8802;52.402;4.920;2023-02-15T00:49:23;44.50;;;38.40;;
17369;SDS011;8802;52.402;4.920;2023-02-15T00:51:50;44.72;;;39.13;;
17369;SDS011;8802;52.402;4.920;2023-02-15T00:54:17;43.38;;;36.88;;
17369;SDS011;8802;52.402;4.920;2023-02-15T00:56:44;42.20;;;36.50;;
17369;SDS011;8802;52.402;4.920;2023-02-15T00:59:13;41.58;;;36.05;;
17369;SDS011;8802;52.402;4.920;2023-02-15T01:01:39;40.35;;;36.03;;
17369;SDS011;8802;52.402;4.920;2023-02-15T01:04:06;44.03;;;39.10;;
17369;SDS011;8802;52.402;4.920;2023-02-15T01:06:33;45.88;;;38.80;;
17369;SDS011;8802;52.402;4.920;2023-02-15T01:09:00;42.00;;;37.03;;
17369;SDS011;8802;52.402;4.920;2023-02-15T01:11:27;45.60;;;37.55;;
17369;SDS011;8802;52.402;4.920;2023-02-15T01:13:54;44.20;;;38.08;;
17369;SDS011;8802;52.402;4.920;2023-02-15T01:16:24;41.67;;;36.35;;
17369;SDS011;8802;52.402;4.920;2023-02-15T01:18:52;39.80;;;34.92;;
17369;SDS011;8802;52.402;4.920;2023-02-15T01:21:20;42.47;;;36.10;;
17369;SDS011;8802;52.402;4.920;2023-02-15T01:23:49;42.00;;;36.20;;
17369;SDS011;8802;52.402;4.920;2023-02-15T01:26:16;40.97;;;35.22;;
17369;SDS011;8802;52.402;4.920;2023-02-15T01:28:43;40.00;;;34.63;;
17369;SDS011;8802;52.402;4.920;2023-02-15T01:31:11;40.55;;;34.65;;
17369;SDS011;8802;52.402;4.920;2023-02-15T01:33:40;39.22;;;33.65;;
17369;SDS011;8802;52.402;4.920;2023-02-15T01:36:08;42.00;;;36.25;;
17369;SDS011;8802;52.402;4.920;2023-02-15T01:38:35;38.92;;;33.20;;
17369;SDS011;8802;52.402;4.920;2023-02-15T01:41:02;41.33;;;35.13;;
17369;SDS011;8802;52.402;4.920;2023-02-15T01:43:49;39.28;;;35.00;;
17369;SDS011;8802;52.402;4.920;2023-02-15T01:46:18;39.53;;;34.63;;
17369;SDS011;8802;52.402;4.920;2023-02-15T01:48:50;39.47;;;34.50;;
17369;SDS011;8802;52.402;4.920;2023-02-15T01:51:23;39.95;;;33.67;;
17369;SDS011;8802;52.402;4.920;2023-02-15T01:53:53;39.42;;;33.33;;
17369;SDS011;8802;52.402;4.920;2023-02-15T01:56:25;37.00;;;31.98;;
17369;SDS011;8802;52.402;4.920;2023-02-15T01:58:55;38.13;;;33.25;;
17369;SDS011;8802;52.402;4.920;2023-02-15T02:01:26;35.90;;;32.05;;
17369;SDS011;8802;52.402;4.920;2023-02-15T02:03:58;40.30;;;33.30;;
17369;SDS011;8802;52.402;4.920;2023-02-15T02:06:32;40.33;;;32.80;;
17369;SDS011;8802;52.402;4.920;2023-02-15T02:09:00;36.25;;;31.25;;
17369;SDS011;8802;52.402;4.920;2023-02-15T02:11:28;38.58;;;31.70;;
17369;SDS011;8802;52.402;4.920;2023-02-15T02:13:55;37.80;;;31.75;;
17369;SDS011;8802;52.402;4.920;2023-02-15T02:16:23;36.20;;;30.92;;
17369;SDS011;8802;52.402;4.920;2023-02-15T02:19:01;36.70;;;31.10;;
17369;SDS011;8802;52.402;4.920;2023-02-15T02:21:54;33.67;;;29.90;;
17369;SDS011;8802;52.402;4.920;2023-02-15T02:24:58;35.65;;;30.05;;
17369;SDS011;8802;52.402;4.920;2023-02-15T02:27:41;33.78;;;28.98;;
17369;SDS011;8802;52.402;4.920;2023-02-15T02:30:23;36.42;;;32.53;;
17369;SDS011;8802;52.402;4.920;2023-02-15T02:33:17;37.22;;;30.52;;
17369;SDS011;8802;52.402;4.920;2023-02-15T02:36:02;33.05;;;29.45;;
17369;SDS011;8802;52.402;4.920;2023-02-15T02:38:38;35.10;;;31.25;;
17369;SDS011;8802;52.402;4.920;2023-02-15T02:41:17;36.53;;;31.20;;
17369;SDS011;8802;52.402;4.920;2023-02-15T02:43:50;33.42;;;29.30;;
17369;SDS011;8802;52.402;4.920;2023-02-15T02:46:22;33.45;;;29.83;;
17369;SDS011;8802;52.402;4.920;2023-02-15T02:48:55;35.78;;;30.35;;
17369;SDS011;8802;52.402;4.920;2023-02-15T02:51:22;33.00;;;27.33;;
17369;SDS011;8802;52.402;4.920;2023-02-15T02:53:50;35.83;;;30.80;;
17369;SDS011;8802;52.402;4.920;2023-02-15T02:56:21;32.05;;;27.42;;
17369;SDS011;8802;52.402;4.920;2023-02-15T02:58:52;33.03;;;27.75;;
17369;SDS011;8802;52.402;4.920;2023-02-15T03:01:23;32.90;;;29.08;;
17369;SDS011;8802;52.402;4.920;2023-02-15T03:03:57;33.13;;;28.67;;
17369;SDS011;8802;52.402;4.920;2023-02-15T03:06:30;32.85;;;28.42;;
17369;SDS011;8802;52.402;4.920;2023-02-15T03:09:03;30.15;;;26.83;;
17369;SDS011;8802;52.402;4.920;2023-02-15T03:11:39;32.28;;;27.73;;
17369;SDS011;8802;52.402;4.920;2023-02-15T03:14:07;33.15;;;28.05;;
17369;SDS011;8802;52.402;4.920;2023-02-15T03:16:35;31.52;;;27.33;;
17369;SDS011;8802;52.402;4.920;2023-02-15T03:19:05;31.60;;;28.27;;
17369;SDS011;8802;52.402;4.920;2023-02-15T03:21:36;33.20;;;26.98;;
17369;SDS011;8802;52.402;4.920;2023-02-15T03:24:07;30.48;;;26.13;;
17369;SDS011;8802;52.402;4.920;2023-02-15T03:26:38;32.97;;;26.90;;
17369;SDS011;8802;52.402;4.920;2023-02-15T03:29:08;29.52;;;26.05;;
17369;SDS011;8802;52.402;4.920;2023-02-15T03:31:38;30.52;;;25.75;;
17369;SDS011;8802;52.402;4.920;2023-02-15T03:34:11;32.05;;;27.58;;
17369;SDS011;8802;52.402;4.920;2023-02-15T03:36:43;30.98;;;24.92;;
17369;SDS011;8802;52.402;4.920;2023-02-15T03:39:16;30.48;;;27.23;;
17369;SDS011;8802;52.402;4.920;2023-02-15T03:41:51;30.55;;;26.10;;
17369;SDS011;8802;52.402;4.920;2023-02-15T03:44:24;29.42;;;26.13;;
17369;SDS011;8802;52.402;4.920;2023-02-15T03:46:56;27.85;;;24.42;;
17369;SDS011;8802;52.402;4.920;2023-02-15T03:49:31;30.02;;;25.13;;
17369;SDS011;8802;52.402;4.920;2023-02-15T03:52:05;29.50;;;24.75;;
17369;SDS011;8802;52.402;4.920;2023-02-15T03:54:34;25.40;;;22.67;;
17369;SDS011;8802;52.402;4.920;2023-02-15T03:57:09;26.73;;;23.30;;
17369;SDS011;8802;52.402;4.920;2023-02-15T03:59:56;27.88;;;23.33;;
17369;SDS011;8802;52.402;4.920;2023-02-15T04:02:43;26.77;;;23.98;;
17369;SDS011;8802;52.402;4.920;2023-02-15T04:05:28;25.95;;;23.15;;
17369;SDS011;8802;52.402;4.920;2023-02-15T04:07:54;28.80;;;25.02;;
17369;SDS011;8802;52.402;4.920;2023-02-15T04:10:21;28.77;;;24.75;;
17369;SDS011;8802;52.402;4.920;2023-02-15T04:13:05;27.98;;;24.20;;
17369;SDS011;8802;52.402;4.920;2023-02-15T04:15:32;27.60;;;24.02;;
17369;SDS011;8802;52.402;4.920;2023-02-15T04:18:16;27.00;;;23.95;;
17369;SDS011;8802;52.402;4.920;2023-02-15T04:20:44;28.48;;;24.75;;
17369;SDS011;8802;52.402;4.920;2023-02-15T04:23:29;26.67;;;23.33;;
17369;SDS011;8802;52.402;4.920;2023-02-15T04:26:14;26.20;;;23.45;;
17369;SDS011;8802;52.402;4.920;2023-02-15T04:28:41;24.85;;;21.88;;
17369;SDS011;8802;52.402;4.920;2023-02-15T04:31:08;26.80;;;23.05;;
17369;SDS011;8802;52.402;4.920;2023-02-15T04:33:35;26.50;;;23.65;;
17369;SDS011;8802;52.402;4.920;2023-02-15T04:36:03;28.58;;;25.27;;
17369;SDS011;8802;52.402;4.920;2023-02-15T04:38:31;25.52;;;22.80;;
17369;SDS011;8802;52.402;4.920;2023-02-15T04:40:58;25.88;;;20.92;;
17369;SDS011;8802;52.402;4.920;2023-02-15T04:43:24;29.85;;;23.88;;
17369;SDS011;8802;52.402;4.920;2023-02-15T04:45:51;24.83;;;22.33;;
17369;SDS011;8802;52.402;4.920;2023-02-15T04:48:18;27.13;;;23.02;;
17369;SDS011;8802;52.402;4.920;2023-02-15T04:50:45;26.05;;;23.15;;
17369;SDS011;8802;52.402;4.920;2023-02-15T04:53:13;29.17;;;25.00;;
17369;SDS011;8802;52.402;4.920;2023-02-15T04:55:42;25.52;;;22.67;;
17369;SDS011;8802;52.402;4.920;2023-02-15T04:58:09;25.75;;;22.45;;
17369;SDS011;8802;52.402;4.920;2023-02-15T05:00:35;26.15;;;22.75;;
17369;SDS011;8802;52.402;4.920;2023-02-15T05:03:02;27.98;;;24.63;;
17369;SDS011;8802;52.402;4.920;2023-02-15T05:05:29;28.83;;;24.63;;
17369;SDS011;8802;52.402;4.920;2023-02-15T05:07:56;26.25;;;23.15;;
17369;SDS011;8802;52.402;4.920;2023-02-15T05:10:24;26.58;;;23.00;;
17369;SDS011;8802;52.402;4.920;2023-02-15T05:12:51;27.75;;;24.77;;
17369;SDS011;8802;52.402;4.920;2023-02-15T05:15:18;27.38;;;24.42;;
17369;SDS011;8802;52.402;4.920;2023-02-15T05:17:45;26.20;;;23.25;;
17369;SDS011;8802;52.402;4.920;2023-02-15T05:20:11;25.20;;;22.48;;
17369;SDS011;8802;52.402;4.920;2023-02-15T05:22:38;25.42;;;22.05;;
17369;SDS011;8802;52.402;4.920;2023-02-15T05:25:06;27.38;;;24.20;;
17369;SDS011;8802;52.402;4.920;2023-02-15T05:27:55;29.25;;;23.90;;
17369;SDS011;8802;52.402;4.920;2023-02-15T05:30:39;26.52;;;23.33;;
17369;SDS011;8802;52.402;4.920;2023-02-15T05:33:06;26.90;;;23.90;;
17369;SDS011;8802;52.402;4.920;2023-02-15T05:35:33;28.85;;;23.63;;
17369;SDS011;8802;52.402;4.920;2023-02-15T05:38:00;27.17;;;23.63;;
17369;SDS011;8802;52.402;4.920;2023-02-15T05:40:27;25.38;;;22.15;;
17369;SDS011;8802;52.402;4.920;2023-02-15T05:42:55;27.00;;;23.67;;
17369;SDS011;8802;52.402;4.920;2023-02-15T05:45:22;27.33;;;24.20;;
17369;SDS011;8802;52.402;4.920;2023-02-15T05:47:50;26.50;;;22.27;;
17369;SDS011;8802;52.402;4.920;2023-02-15T05:50:16;25.40;;;22.65;;
17369;SDS011;8802;52.402;4.920;2023-02-15T05:52:43;28.35;;;24.50;;
17369;SDS011;8802;52.402;4.920;2023-02-15T05:55:10;27.90;;;23.88;;
17369;SDS011;8802;52.402;4.920;2023-02-15T05:57:37;28.30;;;22.83;;
17369;SDS011;8802;52.402;4.920;2023-02-15T06:00:06;27.17;;;23.50;;
17369;SDS011;8802;52.402;4.920;2023-02-15T06:02:34;25.90;;;23.10;;
17369;SDS011;8802;52.402;4.920;2023-02-15T06:05:02;29.40;;;24.25;;
17369;SDS011;8802;52.402;4.920;2023-02-15T06:07:30;29.33;;;24.88;;
17369;SDS011;8802;52.402;4.920;2023-02-15T06:09:57;28.13;;;23.90;;
17369;SDS011;8802;52.402;4.920;2023-02-15T06:12:24;28.92;;;24.52;;
17369;SDS011;8802;52.402;4.920;2023-02-15T06:14:51;27.60;;;22.98;;
17369;SDS011;8802;52.402;4.920;2023-02-15T06:17:19;26.33;;;23.58;;
17369;SDS011;8802;52.402;4.920;2023-02-15T06:19:46;26.45;;;22.92;;
17369;SDS011;8802;52.402;4.920;2023-02-15T06:22:13;25.38;;;22.52;;
17369;SDS011;8802;52.402;4.920;2023-02-15T06:24:40;29.42;;;24.60;;
17369;SDS011;8802;52.402;4.920;2023-02-15T06:27:07;26.85;;;22.55;;
17369;SDS011;8802;52.402;4.920;2023-02-15T06:29:34;27.17;;;22.85;;
17369;SDS011;8802;52.402;4.920;2023-02-15T06:32:01;26.10;;;22.00;;
17369;SDS011;8802;52.402;4.920;2023-02-15T06:34:30;26.90;;;23.77;;
17369;SDS011;8802;52.402;4.920;2023-02-15T06:36:57;28.75;;;22.75;;
17369;SDS011;8802;52.402;4.920;2023-02-15T06:39:24;26.65;;;22.75;;
17369;SDS011;8802;52.402;4.920;2023-02-15T06:41:51;24.92;;;21.30;;
17369;SDS011;8802;52.402;4.920;2023-02-15T06:44:18;24.55;;;20.55;;
17369;SDS011;8802;52.402;4.920;2023-02-15T06:46:44;27.35;;;22.67;;
17369;SDS011;8802;52.402;4.920;2023-02-15T06:49:11;23.67;;;20.45;;
17369;SDS011;8802;52.402;4.920;2023-02-15T06:51:39;24.77;;;21.35;;
17369;SDS011;8802;52.402;4.920;2023-02-15T06:54:06;23.88;;;20.95;;
17369;SDS011;8802;52.402;4.920;2023-02-15T06:56:33;27.48;;;22.55;;
17369;SDS011;8802;52.402;4.920;2023-02-15T06:59:00;26.73;;;22.17;;
17369;SDS011;8802;52.402;4.920;2023-02-15T07:01:27;24.33;;;20.48;;
17369;SDS011;8802;52.402;4.920;2023-02-15T07:03:54;25.75;;;21.85;;
17369;SDS011;8802;52.402;4.920;2023-02-15T07:06:20;25.95;;;21.15;;
17369;SDS011;8802;52.402;4.920;2023-02-15T07:08:49;26.27;;;21.52;;
17369;SDS011;8802;52.402;4.920;2023-02-15T07:11:15;27.63;;;23.05;;
17369;SDS011;8802;52.402;4.920;2023-02-15T07:13:59;28.75;;;22.00;;
17369;SDS011;8802;52.402;4.920;2023-02-15T07:16:26;26.58;;;22.10;;
17369;SDS011;8802;52.402;4.920;2023-02-15T07:18:53;28.02;;;23.05;;
17369;SDS011;8802;52.402;4.920;2023-02-15T07:21:20;26.50;;;21.58;;
17369;SDS011;8802;52.402;4.920;2023-02-15T07:23:49;25.33;;;22.15;;
17369;SDS011;8802;52.402;4.920;2023-02-15T07:26:15;26.52;;;22.65;;
17369;SDS011;8802;52.402;4.920;2023-02-15T07:28:42;27.08;;;22.45;;
17369;SDS011;8802;52.402;4.920;2023-02-15T07:31:09;27.58;;;22.33;;
17369;SDS011;8802;52.402;4.920;2023-02-15T07:33:36;27.55;;;23.38;;
17369;SDS011;8802;52.402;4.920;2023-02-15T07:36:03;24.88;;;21.75;;
17369;SDS011;8802;52.402;4.920;2023-02-15T07:38:31;24.17;;;21.60;;
17369;SDS011;8802;52.402;4.920;2023-02-15T07:41:00;25.08;;;22.08;;
17369;SDS011;8802;52.402;4.920;2023-02-15T07:43:28;27.20;;;24.30;;
17369;SDS011;8802;52.402;4.920;2023-02-15T07:45:58;28.92;;;24.00;;
17369;SDS011;8802;52.402;4.920;2023-02-15T07:48:25;28.15;;;23.85;;
17369;SDS011;8802;52.402;4.920;2023-02-15T07:50:52;31.67;;;23.60;;
17369;SDS011;8802;52.402;4.920;2023-02-15T07:53:19;29.05;;;23.00;;
17369;SDS011;8802;52.402;4.920;2023-02-15T07:55:46;27.70;;;23.02;;
17369;SDS011;8802;52.402;4.920;2023-02-15T07:58:14;27.15;;;23.38;;
17369;SDS011;8802;52.402;4.920;2023-02-15T08:00:41;28.85;;;23.17;;
17369;SDS011;8802;52.402;4.920;2023-02-15T08:03:23;27.77;;;22.13;;
17369;SDS011;8802;52.402;4.920;2023-02-15T08:05:54;26.83;;;23.38;;
17369;SDS011;8802;52.402;4.920;2023-02-15T08:08:23;25.20;;;22.00;;
17369;SDS011;8802;52.402;4.920;2023-02-15T08:10:59;25.88;;;22.55;;
17369;SDS011;8802;52.402;4.920;2023-02-15T08:13:47;29.73;;;24.63;;
17369;SDS011;8802;52.402;4.920;2023-02-15T08:16:24;30.48;;;25.90;;
17369;SDS011;8802;52.402;4.920;2023-02-15T08:18:53;27.50;;;23.40;;
17369;SDS011;8802;52.402;4.920;2023-02-15T08:21:21;25.67;;;22.90;;
17369;SDS011;8802;52.402;4.920;2023-02-15T08:23:48;29.38;;;23.63;;
17369;SDS011;8802;52.402;4.920;2023-02-15T08:26:15;31.52;;;24.73;;
17369;SDS011;8802;52.402;4.920;2023-02-15T08:28:42;26.13;;;22.98;;
17369;SDS011;8802;52.402;4.920;2023-02-15T08:31:11;28.88;;;23.55;;
17369;SDS011;8802;52.402;4.920;2023-02-15T08:33:39;30.27;;;24.25;;
17369;SDS011;8802;52.402;4.920;2023-02-15T08:36:08;29.20;;;24.33;;
17369;SDS011;8802;52.402;4.920;2023-02-15T08:38:36;27.33;;;23.75;;
17369;SDS011;8802;52.402;4.920;2023-02-15T08:41:11;29.75;;;25.08;;
17369;SDS011;8802;52.402;4.920;2023-02-15T08:43:41;28.52;;;24.55;;
17369;SDS011;8802;52.402;4.920;2023-02-15T08:46:09;27.73;;;24.48;;
17369;SDS011;8802;52.402;4.920;2023-02-15T08:48:37;28.23;;;23.90;;
17369;SDS011;8802;52.402;4.920;2023-02-15T08:51:05;28.73;;;24.35;;
17369;SDS011;8802;52.402;4.920;2023-02-15T08:53:35;29.23;;;24.63;;
17369;SDS011;8802;52.402;4.920;2023-02-15T08:56:03;28.38;;;24.60;;
17369;SDS011;8802;52.402;4.920;2023-02-15T08:58:30;31.33;;;25.70;;
17369;SDS011;8802;52.402;4.920;2023-02-15T09:00:57;32.10;;;24.77;;
17369;SDS011;8802;52.402;4.920;2023-02-15T09:03:25;33.30;;;26.27;;
17369;SDS011;8802;52.402;4.920;2023-02-15T09:05:56;34.70;;;26.35;;
17369;SDS011;8802;52.402;4.920;2023-02-15T09:08:24;33.90;;;27.98;;
17369;SDS011;8802;52.402;4.920;2023-02-15T09:10:51;34.65;;;26.70;;
17369;SDS011;8802;52.402;4.920;2023-02-15T09:13:18;39.13;;;29.17;;
17369;SDS011;8802;52.402;4.920;2023-02-15T09:15:45;38.70;;;28.60;;
17369;SDS011;8802;52.402;4.920;2023-02-15T09:18:12;39.92;;;31.20;;
17369;SDS011;8802;52.402;4.920;2023-02-15T09:20:43;32.63;;;28.85;;
17369;SDS011;8802;52.402;4.920;2023-02-15T09:23:10;35.85;;;29.67;;
17369;SDS011;8802;52.402;4.920;2023-02-15T09:25:37;32.78;;;27.00;;
17369;SDS011;8802;52.402;4.920;2023-02-15T09:28:04;33.33;;;28.35;;
17369;SDS011;8802;52.402;4.920;2023-02-15T09:30:31;34.35;;;28.88;;
17369;SDS011;8802;52.402;4.920;2023-02-15T09:32:57;33.65;;;28.92;;
17369;SDS011;8802;52.402;4.920;2023-02-15T09:35:24;38.33;;;29.33;;
17369;SDS011;8802;52.402;4.920;2023-02-15T09:37:52;35.75;;;30.00;;
17369;SDS011;8802;52.402;4.920;2023-02-15T09:40:19;33.58;;;29.33;;
17369;SDS011;8802;52.402;4.920;2023-02-15T09:42:53;33.05;;;28.95;;
17369;SDS011;8802;52.402;4.920;2023-02-15T09:45:49;38.10;;;31.00;;
17369;SDS011;8802;52.402;4.920;2023-02-15T09:51:12;34.97;;;29.83;;
17369;SDS011;8802;52.402;4.920;2023-02-15T09:54:19;34.28;;;30.02;;
17369;SDS011;8802;52.402;4.920;2023-02-15T09:56:55;37.17;;;30.98;;
17369;SDS011;8802;52.402;4.920;2023-02-15T09:59:27;36.25;;;31.23;;
17369;SDS011;8802;52.402;4.920;2023-02-15T10:02:06;35.47;;;30.77;;
17369;SDS011;8802;52.402;4.920;2023-02-15T10:04:48;35.28;;;30.15;;
17369;SDS011;8802;52.402;4.920;2023-02-15T10:07:29;36.38;;;30.05;;
17369;SDS011;8802;52.402;4.920;2023-02-15T10:10:13;34.72;;;29.98;;
17369;SDS011;8802;52.402;4.920;2023-02-15T10:12:57;37.95;;;33.80;;
17369;SDS011;8802;52.402;4.920;2023-02-15T10:15:37;34.38;;;30.67;;
17369;SDS011;8802;52.402;4.920;2023-02-15T10:18:30;41.95;;;31.48;;
17369;SDS011;8802;52.402;4.920;2023-02-15T10:21:06;39.28;;;32.92;;
17369;SDS011;8802;52.402;4.920;2023-02-15T10:26:37;39.00;;;32.30;;
17369;SDS011;8802;52.402;4.920;2023-02-15T10:29:12;36.45;;;32.40;;
17369;SDS011;8802;52.402;4.920;2023-02-15T10:31:50;36.97;;;30.67;;
17369;SDS011;8802;52.402;4.920;2023-02-15T10:34:19;40.80;;;31.85;;
17369;SDS011;8802;52.402;4.920;2023-02-15T10:37:00;35.85;;;31.67;;
17369;SDS011;8802;52.402;4.920;2023-02-15T10:39:42;35.25;;;31.42;;
17369;SDS011;8802;52.402;4.920;2023-02-15T10:42:24;36.38;;;31.60;;
17369;SDS011;8802;52.402;4.920;2023-02-15T10:45:04;36.88;;;31.85;;
17369;SDS011;8802;52.402;4.920;2023-02-15T10:47:46;39.03;;;33.15;;
17369;SDS011;8802;52.402;4.920;2023-02-15T10:50:26;38.65;;;33.80;;
17369;SDS011;8802;52.402;4.920;2023-02-15T10:53:07;34.05;;;29.50;;
17369;SDS011;8802;52.402;4.920;2023-02-15T10:55:46;39.63;;;31.67;;
17369;SDS011;8802;52.402;4.920;2023-02-15T10:58:22;36.53;;;32.55;;
17369;SDS011;8802;52.402;4.920;2023-02-15T11:00:59;39.10;;;34.88;;
17369;SDS011;8802;52.402;4.920;2023-02-15T11:03:36;36.75;;;32.75;;
17369;SDS011;8802;52.402;4.920;2023-02-15T11:06:16;40.92;;;31.65;;
17369;SDS011;8802;52.402;4.920;2023-02-15T11:08:46;34.47;;;30.65;;
17369;SDS011;8802;52.402;4.920;2023-02-15T11:11:19;35.53;;;31.65;;
17369;SDS011;8802;52.402;4.920;2023-02-15T11:13:52;37.67;;;31.95;;
17369;SDS011;8802;52.402;4.920;2023-02-15T11:16:23;35.83;;;30.58;;
17369;SDS011;8802;52.402;4.920;2023-02-15T11:18:54;32.22;;;27.23;;
17369;SDS011;8802;52.402;4.920;2023-02-15T11:21:24;32.28;;;28.48;;
17369;SDS011;8802;52.402;4.920;2023-02-15T11:23:54;31.90;;;28.08;;
17369;SDS011;8802;52.402;4.920;2023-02-15T11:26:21;32.22;;;28.30;;
17369;SDS011;8802;52.402;4.920;2023-02-15T11:28:56;34.42;;;29.92;;
17369;SDS011;8802;52.402;4.920;2023-02-15T11:31:26;33.13;;;29.60;;
17369;SDS011;8802;52.402;4.920;2023-02-15T11:34:01;33.78;;;27.70;;
17369;SDS011;8802;52.402;4.920;2023-02-15T11:36:32;33.35;;;28.25;;
17369;SDS011;8802;52.402;4.920;2023-02-15T11:39:01;33.30;;;27.92;;
17369;SDS011;8802;52.402;4.920;2023-02-15T11:41:31;31.95;;;27.58;;
17369;SDS011;8802;52.402;4.920;2023-02-15T11:44:05;32.00;;;26.77;;
17369;SDS011;8802;52.402;4.920;2023-02-15T11:46:38;31.63;;;26.30;;
17369;SDS011;8802;52.402;4.920;2023-02-15T11:49:08;36.80;;;28.65;;
17369;SDS011;8802;52.402;4.920;2023-02-15T11:51:47;32.95;;;27.25;;
17369;SDS011;8802;52.402;4.920;2023-02-15T11:54:15;33.72;;;27.00;;
17369;SDS011;8802;52.402;4.920;2023-02-15T11:56:43;31.23;;;25.95;;
17369;SDS011;8802;52.402;4.920;2023-02-15T11:59:12;35.00;;;28.60;;
17369;SDS011;8802;52.402;4.920;2023-02-15T12:01:45;31.80;;;28.17;;
17369;SDS011;8802;52.402;4.920;2023-02-15T12:04:14;36.70;;;29.40;;
17369;SDS011;8802;52.402;4.920;2023-02-15T12:06:48;33.72;;;28.95;;
17369;SDS011;8802;52.402;4.920;2023-02-15T12:09:28;29.58;;;26.38;;
17369;SDS011;8802;52.402;4.920;2023-02-15T12:14:50;31.40;;;26.80;;
17369;SDS011;8802;52.402;4.920;2023-02-15T12:17:17;34.22;;;30.30;;
17369;SDS011;8802;52.402;4.920;2023-02-15T12:19:47;32.72;;;27.77;;
17369;SDS011;8802;52.402;4.920;2023-02-15T12:22:18;36.80;;;28.35;;
17369;SDS011;8802;52.402;4.920;2023-02-15T12:24:49;35.78;;;30.17;;
17369;SDS011;8802;52.402;4.920;2023-02-15T12:27:18;32.67;;;29.30;;
17369;SDS011;8802;52.402;4.920;2023-02-15T12:29:49;33.72;;;30.20;;
17369;SDS011;8802;52.402;4.920;2023-02-15T12:32:18;33.83;;;29.90;;
17369;SDS011;8802;52.402;4.920;2023-02-15T12:34:48;31.85;;;27.33;;
17369;SDS011;8802;52.402;4.920;2023-02-15T12:37:18;35.10;;;31.30;;
17369;SDS011;8802;52.402;4.920;2023-02-15T12:39:52;33.92;;;28.45;;
17369;SDS011;8802;52.402;4.920;2023-02-15T12:42:21;36.22;;;30.02;;
17369;SDS011;8802;52.402;4.920;2023-02-15T12:44:54;32.80;;;29.23;;
17369;SDS011;8802;52.402;4.920;2023-02-15T12:47:23;33.25;;;29.60;;
17369;SDS011;8802;52.402;4.920;2023-02-15T12:50:08;34.33;;;28.52;;
17369;SDS011;8802;52.402;4.920;2023-02-15T12:52:43;31.73;;;26.50;;
17369;SDS011;8802;52.402;4.920;2023-02-15T12:55:17;34.30;;;28.58;;
17369;SDS011;8802;52.402;4.920;2023-02-15T12:57:46;34.25;;;29.95;;
17369;SDS011;8802;52.402;4.920;2023-02-15T13:03:02;32.10;;;28.60;;
17369;SDS011;8802;52.402;4.920;2023-02-15T13:05:30;31.98;;;27.80;;
17369;SDS011;8802;52.402;4.920;2023-02-15T13:08:02;36.15;;;31.15;;
17369;SDS011;8802;52.402;4.920;2023-02-15T13:10:35;34.15;;;29.35;;
17369;SDS011;8802;52.402;4.920;2023-02-15T13:13:09;33.92;;;30.27;;
17369;SDS011;8802;52.402;4.920;2023-02-15T13:15:38;32.05;;;27.98;;
17369;SDS011;8802;52.402;4.920;2023-02-15T13:18:10;35.35;;;29.98;;
17369;SDS011;8802;52.402;4.920;2023-02-15T13:20:41;34.58;;;28.75;;
17369;SDS011;8802;52.402;4.920;2023-02-15T13:23:13;37.20;;;32.67;;
17369;SDS011;8802;52.402;4.920;2023-02-15T13:25:57;36.30;;;31.13;;
17369;SDS011;8802;52.402;4.920;2023-02-15T13:28:27;37.42;;;31.98;;
17369;SDS011;8802;52.402;4.920;2023-02-15T13:31:09;38.03;;;32.75;;
17369;SDS011;8802;52.402;4.920;2023-02-15T13:33:39;38.47;;;32.92;;
17369;SDS011;8802;52.402;4.920;2023-02-15T13:36:12;33.15;;;29.52;;
17369;SDS011;8802;52.402;4.920;2023-02-15T13:38:49;38.33;;;33.03;;
17369;SDS011;8802;52.402;4.920;2023-02-15T13:41:27;35.60;;;30.98;;
17369;SDS011;8802;52.402;4.920;2023-02-15T13:44:01;34.15;;;30.45;;
17369;SDS011;8802;52.402;4.920;2023-02-15T13:46:52;36.97;;;31.17;;
17369;SDS011;8802;52.402;4.920;2023-02-15T13:49:32;33.38;;;29.75;;
17369;SDS011;8802;52.402;4.920;2023-02-15T13:52:14;33.65;;;28.95;;
17369;SDS011;8802;52.402;4.920;2023-02-15T13:54:48;36.30;;;32.40;;
17369;SDS011;8802;52.402;4.920;2023-02-15T13:57:40;40.25;;;34.30;;
17369;SDS011;8802;52.402;4.920;2023-02-15T14:00:21;35.42;;;30.83;;
17369;SDS011;8802;52.402;4.920;2023-02-15T14:03:03;34.63;;;30.77;;
17369;SDS011;8802;52.402;4.920;2023-02-15T14:05:47;30.17;;;26.92;;
17369;SDS011;8802;52.402;4.920;2023-02-15T14:08:23;34.97;;;30.00;;
17369;SDS011;8802;52.402;4.920;2023-02-15T14:10:59;38.60;;;32.35;;
17369;SDS011;8802;52.402;4.920;2023-02-15T14:16:35;35.10;;;30.75;;
17369;SDS011;8802;52.402;4.920;2023-02-15T14:19:15;38.92;;;34.60;;
17369;SDS011;8802;52.402;4.920;2023-02-15T14:21:48;36.20;;;32.30;;
17369;SDS011;8802;52.402;4.920;2023-02-15T14:24:25;36.53;;;31.98;;
17369;SDS011;8802;52.402;4.920;2023-02-15T14:26:59;38.55;;;32.70;;
17369;SDS011;8802;52.402;4.920;2023-02-15T14:29:42;36.30;;;31.27;;
17369;SDS011;8802;52.402;4.920;2023-02-15T14:32:15;37.45;;;32.80;;
17369;SDS011;8802;52.402;4.920;2023-02-15T14:34:48;36.78;;;32.63;;
17369;SDS011;8802;52.402;4.920;2023-02-15T14:37:19;39.17;;;32.30;;
17369;SDS011;8802;52.402;4.920;2023-02-15T14:39:55;38.70;;;33.17;;
17369;SDS011;8802;52.402;4.920;2023-02-15T14:42:45;35.83;;;31.98;;
17369;SDS011;8802;52.402;4.920;2023-02-15T14:45:21;38.13;;;31.75;;
17369;SDS011;8802;52.402;4.920;2023-02-15T14:47:55;40.00;;;32.83;;
17369;SDS011;8802;52.402;4.920;2023-02-15T14:50:39;45.80;;;33.38;;
17369;SDS011;8802;52.402;4.920;2023-02-15T14:58:58;30.65;;;27.35;;
17369;SDS011;8802;52.402;4.920;2023-02-15T15:01:39;36.58;;;30.63;;
17369;SDS011;8802;52.402;4.920;2023-02-15T15:04:07;35.38;;;28.83;;
17369;SDS011;8802;52.402;4.920;2023-02-15T15:06:40;33.40;;;29.45;;
17369;SDS011;8802;52.402;4.920;2023-02-15T15:09:10;37.30;;;32.58;;
17369;SDS011;8802;52.402;4.920;2023-02-15T15:11:42;35.67;;;31.85;;
17369;SDS011;8802;52.402;4.920;2023-02-15T15:17:04;36.42;;;32.33;;
17369;SDS011;8802;52.402;4.920;2023-02-15T15:22:39;32.95;;;28.60;;
17369;SDS011;8802;52.402;4.920;2023-02-15T15:28:08;37.20;;;31.00;;